Terminal Aerodrome Forecast
Issued by NWS Missoula, MT

Home | Current Version | Previous Version | Text Only | Print | Product List | Glossary On
Versions: 1 2 3 4 5 6 7 8 9 10 11 12 13 14 15 16 17 18 19
000
FTUS45 KMSO 301126
TAFGPI
TAF
KGPI 301126Z 3012/3112 VRB06KT P6SM SCT040 OVC090
     FM301600 19008KT P6SM SCT050 BKN090
     FM301800 20012G20KT P6SM -SHRA SCT030 OVC040
      TEMPO 3020/3023 VRB15G25KT 6SM TSRA SCT030CB OVC040
     FM310300 19009KT P6SM SCT050 BKN090=

USA.gov is the U.S. government's official web portal to all federal, state and local government web resources and services.